Time;durP1;ratioP1;P1;durP2;ratioP2;P2;SDS_P1;SDS_P2;PMS_P1;PMS_P2;Temp;Humidity;BMP_temperature;BMP_pressure;BME280_temperature;BME280_humidity;BME280_pressure;Samples;Min_cycle;Max_cycle;Signal;HPM_P1;HPM_P2
2021/01/02 00:02:21;;;;;;;14.77;11.67;;;1.60;99.90;;;;;;5071819;28;20502;-62
2021/01/02 00:05:02;;;;;;;18.83;12.90;;;1.60;99.90;;;;;;5071958;28;20418;-63
2021/01/02 00:08:00;;;;;;;20.10;12.50;;;1.70;99.90;;;;;;5071403;28;20393;-63
2021/01/02 00:10:57;;;;;;;17.67;13.00;;;1.70;99.90;;;;;;5071977;28;20401;-62
2021/01/02 00:13:38;;;;;;;22.43;14.00;;;1.70;99.90;;;;;;5070820;28;20428;-62
2021/01/02 00:16:25;;;;;;;15.57;13.10;;;1.70;99.90;;;;;;5071916;28;20510;-62
2021/01/02 00:19:27;;;;;;;18.37;14.37;;;1.70;99.90;;;;;;5071640;28;20402;-62
2021/01/02 00:22:07;;;;;;;16.17;12.30;;;1.60;99.90;;;;;;5071630;28;20444;-63
2021/01/02 00:24:53;;;;;;;18.57;14.10;;;1.60;99.90;;;;;;5071702;28;20512;-63
2021/01/02 00:27:38;;;;;;;17.50;13.60;;;1.60;99.90;;;;;;5069975;28;20414;-62
2021/01/02 00:30:11;;;;;;;17.60;13.70;;;1.70;99.90;;;;;;5071131;28;20401;-63
2021/01/02 00:32:50;;;;;;;17.73;14.67;;;1.60;99.90;;;;;;5070694;28;20428;-63
2021/01/02 00:35:17;;;;;;;16.07;13.40;;;1.60;99.90;;;;;;5071645;28;20424;-63
2021/01/02 00:37:46;;;;;;;18.37;12.97;;;1.60;99.90;;;;;;5072838;28;20800;-65
2021/01/02 00:40:19;;;;;;;19.53;13.53;;;1.50;99.90;;;;;;5072377;28;20421;-63
2021/01/02 00:42:47;;;;;;;17.03;12.97;;;1.50;99.90;;;;;;5072931;28;20470;-64
2021/01/02 00:45:19;;;;;;;16.73;13.20;;;1.50;99.90;;;;;;5072258;28;20471;-65
2021/01/02 00:47:45;;;;;;;16.03;13.00;;;1.60;99.90;;;;;;5072127;28;20463;-64
2021/01/02 00:50:13;;;;;;;16.63;12.70;;;1.60;99.90;;;;;;5072646;28;20402;-64
2021/01/02 00:52:44;;;;;;;15.43;12.83;;;1.50;99.90;;;;;;5072586;28;20462;-64
2021/01/02 00:55:25;;;;;;;17.03;12.43;;;1.50;99.90;;;;;;5072666;28;20432;-64
2021/01/02 00:58:20;;;;;;;16.83;12.83;;;1.50;99.90;;;;;;5072653;28;20422;-64
2021/01/02 01:01:01;;;;;;;19.90;12.63;;;1.50;99.90;;;;;;5072552;28;20409;-64
2021/01/02 01:04:01;;;;;;;17.43;12.10;;;1.40;99.90;;;;;;5072613;28;20406;-64
2021/01/02 01:06:29;;;;;;;14.50;11.83;;;1.40;99.90;;;;;;5072824;28;20428;-64
2021/01/02 01:09:03;;;;;;;16.33;13.20;;;1.40;99.90;;;;;;5072224;28;20406;-64
2021/01/02 01:11:34;;;;;;;16.83;11.80;;;1.30;99.90;;;;;;5072514;28;20413;-64
2021/01/02 01:14:03;;;;;;;15.03;12.13;;;1.30;99.90;;;;;;5073295;28;20769;-64
2021/01/02 01:16:39;;;;;;;13.40;12.00;;;1.30;99.90;;;;;;5072894;28;20414;-62
2021/01/02 01:19:05;;;;;;;17.80;12.70;;;1.30;99.90;;;;;;5073230;28;20900;-63
2021/01/02 01:21:37;;;;;;;16.43;12.03;;;1.20;99.90;;;;;;5073112;28;20808;-64
2021/01/02 01:24:22;;;;;;;17.70;13.07;;;1.30;99.90;;;;;;5072724;28;20518;-64
2021/01/02 01:27:04;;;;;;;17.60;12.27;;;1.30;99.90;;;;;;5073020;28;20414;-64
2021/01/02 01:29:57;;;;;;;16.30;13.10;;;1.30;99.90;;;;;;5072662;28;20932;-64
2021/01/02 01:32:24;;;;;;;18.07;12.03;;;1.40;99.90;;;;;;5072719;28;20421;-63
2021/01/02 01:35:00;;;;;;;19.00;12.40;;;1.40;99.90;;;;;;5072942;28;20496;-64
2021/01/02 01:37:29;;;;;;;17.20;12.87;;;1.30;99.90;;;;;;5072461;28;20401;-64
2021/01/02 01:39:55;;;;;;;17.17;12.63;;;1.30;99.90;;;;;;5072692;28;20898;-64
2021/01/02 01:42:42;;;;;;;14.70;11.83;;;1.30;99.90;;;;;;5072745;28;20449;-64
2021/01/02 01:45:20;;;;;;;17.70;12.50;;;1.40;99.90;;;;;;5075796;28;20425;-64
2021/01/02 01:47:55;;;;;;;14.63;12.87;;;1.40;99.90;;;;;;5076394;28;20408;-64
2021/01/02 01:50:26;;;;;;;18.87;12.93;;;1.40;99.90;;;;;;5076438;28;20481;-62
2021/01/02 01:52:52;;;;;;;16.70;11.87;;;1.30;99.90;;;;;;5076539;28;20412;-64
2021/01/02 01:55:18;;;;;;;15.50;11.97;;;1.30;99.90;;;;;;5075879;28;20429;-63
2021/01/02 01:57:47;;;;;;;19.53;12.57;;;1.30;99.90;;;;;;5075789;28;20181;-64
2021/01/02 02:00:19;;;;;;;17.37;11.93;;;1.30;99.90;;;;;;5074699;28;20413;-64
2021/01/02 02:02:44;;;;;;;15.30;10.90;;;1.30;99.90;;;;;;5075390;28;20477;-64
2021/01/02 02:05:12;;;;;;;16.93;11.73;;;1.30;99.90;;;;;;5075597;28;20457;-64
2021/01/02 02:07:40;;;;;;;13.63;10.43;;;1.30;99.90;;;;;;5073898;28;20562;-65
2021/01/02 02:10:07;;;;;;;16.33;12.37;;;1.30;99.90;;;;;;5074994;28;20406;-63
2021/01/02 02:12:34;;;;;;;14.30;11.33;;;1.30;99.90;;;;;;5075502;28;20409;-63
2021/01/02 02:15:00;;;;;;;16.93;11.77;;;1.20;99.90;;;;;;5075129;28;20478;-64
2021/01/02 02:17:28;;;;;;;16.60;12.00;;;1.20;99.90;;;;;;5074408;28;20405;-64
2021/01/02 02:19:53;;;;;;;10.97;9.87;;;1.20;99.90;;;;;;5074684;28;20639;-64
2021/01/02 02:22:26;;;;;;;14.37;11.90;;;1.30;99.90;;;;;;5074486;28;20453;-64
2021/01/02 02:24:53;;;;;;;13.97;10.67;;;1.20;99.90;;;;;;5074331;28;20258;-64
2021/01/02 02:27:27;;;;;;;15.40;12.23;;;1.10;99.90;;;;;;5073738;28;20451;-64
2021/01/02 02:30:14;;;;;;;15.37;10.07;;;1.10;99.90;;;;;;5071824;28;20418;-64
2021/01/02 02:32:42;;;;;;;15.83;12.17;;;1.10;99.90;;;;;;5073886;28;20401;-64
2021/01/02 02:35:14;;;;;;;16.13;11.97;;;1.00;99.90;;;;;;5073840;28;20945;-64
2021/01/02 02:37:43;;;;;;;13.70;10.93;;;1.00;99.90;;;;;;5073380;28;20463;-64
2021/01/02 02:40:10;;;;;;;14.87;10.90;;;1.10;99.90;;;;;;5073814;28;20447;-64
2021/01/02 02:42:44;;;;;;;18.07;10.50;;;1.10;99.90;;;;;;5073532;28;20536;-64
2021/01/02 02:45:12;;;;;;;19.03;10.70;;;1.10;99.90;;;;;;5073720;28;20428;-64
2021/01/02 02:47:40;;;;;;;17.50;10.90;;;0.90;99.90;;;;;;5073920;28;20575;-64
2021/01/02 02:50:16;;;;;;;16.00;11.50;;;1.00;99.90;;;;;;5073797;28;20777;-64
2021/01/02 02:52:43;;;;;;;14.17;10.57;;;0.90;99.90;;;;;;5073608;28;20409;-64
2021/01/02 02:55:10;;;;;;;14.13;11.50;;;1.00;99.90;;;;;;5072523;28;20480;-63
2021/01/02 02:57:46;;;;;;;14.00;11.37;;;0.80;99.90;;;;;;5071883;28;20441;-64
2021/01/02 03:00:14;;;;;;;14.37;11.53;;;0.90;99.90;;;;;;5073582;28;20411;-64
2021/01/02 03:02:40;;;;;;;12.10;9.37;;;0.80;99.90;;;;;;5073227;28;20992;-64
2021/01/02 03:05:14;;;;;;;13.43;11.57;;;0.80;99.90;;;;;;5073412;28;20497;-64
2021/01/02 03:07:45;;;;;;;14.10;10.80;;;0.80;99.90;;;;;;5072969;28;20407;-64
2021/01/02 03:10:12;;;;;;;14.77;11.03;;;0.80;99.90;;;;;;5073158;28;20404;-63
2021/01/02 03:12:45;;;;;;;13.30;9.97;;;0.80;99.90;;;;;;5072957;28;20413;-64
2021/01/02 03:15:17;;;;;;;14.70;10.70;;;0.80;99.90;;;;;;5072862;28;20431;-64
2021/01/02 03:17:43;;;;;;;19.63;11.87;;;0.70;99.90;;;;;;5072616;28;20402;-63
2021/01/02 03:20:11;;;;;;;14.40;9.37;;;0.70;99.90;;;;;;5072764;28;20406;-65
2021/01/02 03:22:44;;;;;;;16.20;11.77;;;0.70;99.90;;;;;;5072736;28;20461;-64
2021/01/02 03:25:12;;;;;;;16.90;9.97;;;0.80;99.90;;;;;;5071530;28;20460;-64
2021/01/02 03:27:39;;;;;;;16.80;10.80;;;0.80;99.90;;;;;;5070291;28;20466;-64
2021/01/02 03:30:09;;;;;;;12.60;9.30;;;0.70;99.90;;;;;;5072325;28;20409;-64
2021/01/02 03:32:36;;;;;;;15.47;11.30;;;0.70;99.90;;;;;;5072548;28;20435;-64
2021/01/02 03:35:07;;;;;;;11.00;9.60;;;0.70;99.90;;;;;;5072525;28;20955;-64
2021/01/02 03:37:34;;;;;;;13.53;10.50;;;0.70;99.90;;;;;;5072359;28;20779;-64
2021/01/02 03:39:59;;;;;;;13.10;10.10;;;0.70;99.90;;;;;;5072118;28;20405;-65
2021/01/02 03:42:25;;;;;;;16.03;10.90;;;0.70;99.90;;;;;;5072417;28;20510;-64
2021/01/02 03:44:50;;;;;;;11.83;9.37;;;0.60;99.90;;;;;;5072166;28;20732;-64
2021/01/02 03:47:16;;;;;;;14.20;10.00;;;0.60;99.90;;;;;;5072131;28;20250;-63
2021/01/02 03:49:42;;;;;;;12.20;10.27;;;0.50;99.90;;;;;;5072088;28;20545;-64
2021/01/02 03:52:07;;;;;;;11.27;8.40;;;0.50;99.90;;;;;;5072158;28;20570;-65
2021/01/02 03:54:34;;;;;;;13.10;9.87;;;0.50;99.90;;;;;;5072507;28;20172;-64
2021/01/02 03:57:00;;;;;;;12.50;9.50;;;0.50;99.90;;;;;;5071544;28;20203;-65
2021/01/02 03:59:26;;;;;;;14.23;9.63;;;0.40;99.90;;;;;;5072164;28;20433;-65
2021/01/02 04:01:56;;;;;;;12.23;9.87;;;0.40;99.90;;;;;;5072010;28;20983;-64
2021/01/02 04:04:23;;;;;;;9.82;8.82;;;0.50;99.90;;;;;;5071919;28;20401;-64
2021/01/02 04:06:50;;;;;;;9.63;8.37;;;0.40;99.90;;;;;;5071578;28;20246;-64
2021/01/02 04:09:15;;;;;;;11.83;9.13;;;0.40;99.90;;;;;;5072025;28;20416;-65
2021/01/02 04:11:42;;;;;;;13.73;9.90;;;0.30;99.90;;;;;;5072046;28;20496;-64
2021/01/02 04:14:09;;;;;;;13.80;9.90;;;0.10;99.90;;;;;;5072122;28;20171;-64
2021/01/02 04:16:35;;;;;;;13.50;8.67;;;0.20;99.90;;;;;;5071656;28;20431;-65
2021/01/02 04:19:01;;;;;;;13.00;9.38;;;0.10;99.90;;;;;;5071917;28;20487;-64
2021/01/02 04:21:26;;;;;;;11.60;8.37;;;0.20;99.90;;;;;;5071576;28;20197;-64
2021/01/02 04:23:52;;;;;;;17.30;10.20;;;0.10;99.90;;;;;;5072002;28;20433;-65
2021/01/02 04:26:22;;;;;;;15.20;9.87;;;0.10;99.90;;;;;;5071865;28;20554;-64
2021/01/02 04:28:48;;;;;;;14.77;12.20;;;0.20;99.90;;;;;;5071472;28;20170;-64
2021/01/02 04:31:14;;;;;;;13.40;10.87;;;0.30;99.90;;;;;;5071976;28;20393;-64
2021/01/02 04:33:39;;;;;;;32.30;17.47;;;0.30;99.90;;;;;;5071692;28;20430;-63
2021/01/02 04:36:05;;;;;;;37.53;21.90;;;0.20;99.90;;;;;;5071787;28;20564;-64
2021/01/02 04:38:31;;;;;;;23.57;15.30;;;0.30;99.90;;;;;;5071312;28;20170;-64
2021/01/02 04:40:57;;;;;;;15.97;12.30;;;0.30;99.90;;;;;;5071765;28;20403;-65
2021/01/02 04:43:24;;;;;;;19.23;13.90;;;0.30;99.90;;;;;;5071581;28;20163;-65
2021/01/02 04:45:51;;;;;;;20.20;13.32;;;0.30;99.90;;;;;;5071711;28;20461;-64
2021/01/02 04:48:16;;;;;;;19.07;13.30;;;0.30;99.90;;;;;;5071678;28;20158;-64
2021/01/02 04:50:42;;;;;;;16.60;12.87;;;0.40;99.90;;;;;;5071680;28;20446;-65
2021/01/02 04:53:09;;;;;;;17.10;11.47;;;0.40;99.90;;;;;;5071563;28;20174;-65
2021/01/02 04:55:43;;;;;;;17.20;14.20;;;0.40;99.90;;;;;;5071649;28;20183;-64
2021/01/02 04:58:14;;;;;;;14.43;11.50;;;0.50;99.90;;;;;;5071015;28;20534;-65
2021/01/02 05:00:40;;;;;;;20.30;10.23;;;0.50;99.90;;;;;;5071663;28;20439;-64
2021/01/02 05:03:07;;;;;;;18.73;13.07;;;0.60;99.90;;;;;;5071349;28;20864;-63
2021/01/02 05:05:32;;;;;;;15.87;11.37;;;0.60;99.90;;;;;;5071562;28;20424;-64
2021/01/02 05:07:58;;;;;;;14.33;10.50;;;0.60;99.90;;;;;;5071174;28;20446;-64
2021/01/02 05:10:24;;;;;;;14.23;10.77;;;0.60;99.90;;;;;;5071620;28;20313;-64
2021/01/02 05:12:50;;;;;;;14.33;10.07;;;0.60;99.90;;;;;;5071514;28;20642;-65
2021/01/02 05:15:16;;;;;;;14.67;9.83;;;0.60;99.90;;;;;;5071301;28;20287;-65
2021/01/02 05:17:42;;;;;;;13.63;11.80;;;0.60;99.90;;;;;;5071537;28;20405;-65
2021/01/02 05:20:09;;;;;;;13.10;8.97;;;0.50;99.90;;;;;;5075152;28;20416;-65
2021/01/02 05:22:36;;;;;;;12.60;9.23;;;0.50;99.90;;;;;;5075316;28;20570;-64
2021/01/02 05:25:15;;;;;;;11.50;9.77;;;0.50;99.90;;;;;;5075058;28;20420;-64
2021/01/02 05:27:46;;;;;;;10.83;9.07;;;0.60;99.90;;;;;;5074962;28;20428;-64
2021/01/02 05:30:15;;;;;;;13.27;9.27;;;0.50;99.90;;;;;;5074990;28;20416;-64
2021/01/02 05:32:53;;;;;;;12.17;8.70;;;0.60;99.90;;;;;;5075173;28;20419;-64
2021/01/02 05:35:22;;;;;;;12.60;9.90;;;0.60;99.90;;;;;;5074914;28;20429;-65
2021/01/02 05:37:48;;;;;;;11.03;8.87;;;0.60;99.90;;;;;;5074659;28;20413;-64
2021/01/02 05:40:31;;;;;;;14.97;10.30;;;0.50;99.90;;;;;;5074756;28;20416;-65
2021/01/02 05:42:57;;;;;;;12.80;8.90;;;0.60;99.90;;;;;;5074826;28;20474;-65
2021/01/02 05:45:26;;;;;;;11.40;7.53;;;0.60;99.90;;;;;;5074701;28;20461;-64
2021/01/02 05:47:51;;;;;;;11.33;8.73;;;0.60;99.90;;;;;;5074654;28;20171;-64
2021/01/02 05:50:20;;;;;;;11.97;7.50;;;0.70;99.90;;;;;;5074911;28;20511;-65
2021/01/02 05:52:49;;;;;;;8.53;7.70;;;0.60;99.90;;;;;;5074619;28;20246;-65
2021/01/02 05:55:28;;;;;;;10.40;7.90;;;0.70;99.90;;;;;;5074574;28;20494;-64
2021/01/02 05:57:54;;;;;;;12.13;7.60;;;0.60;99.90;;;;;;5074144;28;20436;-64
2021/01/02 06:00:20;;;;;;;13.87;7.97;;;0.70;99.90;;;;;;5074726;28;20791;-64
2021/01/02 06:02:46;;;;;;;9.17;6.17;;;0.70;99.90;;;;;;5074368;28;20580;-64
2021/01/02 06:05:12;;;;;;;10.70;7.57;;;0.80;99.90;;;;;;5074623;28;20453;-65
2021/01/02 06:07:39;;;;;;;8.80;7.77;;;0.80;99.90;;;;;;5074065;28;20175;-64
2021/01/02 06:10:10;;;;;;;13.00;7.50;;;0.90;99.90;;;;;;5074316;28;20499;-65
2021/01/02 06:12:41;;;;;;;8.53;7.50;;;0.90;99.90;;;;;;5074271;28;20945;-65
2021/01/02 06:15:08;;;;;;;9.07;6.90;;;0.90;99.90;;;;;;5074296;28;20429;-64
2021/01/02 06:17:34;;;;;;;10.43;6.97;;;0.90;99.90;;;;;;5073918;28;20790;-65
2021/01/02 06:20:03;;;;;;;10.40;7.37;;;0.80;99.90;;;;;;5074313;28;20416;-63
2021/01/02 06:22:30;;;;;;;10.93;8.03;;;0.90;99.90;;;;;;5073890;28;20456;-65
2021/01/02 06:24:56;;;;;;;9.73;5.90;;;0.90;99.90;;;;;;5074147;28;20483;-65
2021/01/02 06:27:22;;;;;;;9.23;6.10;;;0.90;99.90;;;;;;5073889;28;20397;-65
2021/01/02 06:30:06;;;;;;;9.53;6.53;;;0.80;99.90;;;;;;5073903;28;20944;-65
2021/01/02 06:32:32;;;;;;;6.43;5.10;;;0.80;99.90;;;;;;5072944;28;20946;-65
2021/01/02 06:35:10;;;;;;;7.03;6.03;;;0.80;99.90;;;;;;5073696;28;20441;-65
2021/01/02 06:37:50;;;;;;;8.97;6.50;;;0.90;99.90;;;;;;5074344;28;20171;-63
2021/01/02 06:40:23;;;;;;;10.10;6.37;;;0.90;99.90;;;;;;5073761;28;20401;-63
2021/01/02 06:43:03;;;;;;;7.23;5.27;;;0.90;99.90;;;;;;5073724;28;20453;-64
2021/01/02 06:45:34;;;;;;;10.13;9.03;;;0.90;99.90;;;;;;5073589;28;20417;-63
2021/01/02 06:48:24;;;;;;;7.20;4.80;;;0.80;99.90;;;;;;5073394;28;20401;-63
2021/01/02 06:50:52;;;;;;;7.60;6.13;;;0.80;99.90;;;;;;5073495;28;20842;-63
2021/01/02 06:53:30;;;;;;;8.03;7.23;;;0.80;99.90;;;;;;5073623;28;20413;-63
2021/01/02 06:55:57;;;;;;;7.70;6.33;;;0.80;99.90;;;;;;5072133;28;20665;-64
2021/01/02 06:58:22;;;;;;;4.77;4.33;;;0.80;99.90;;;;;;5073156;28;20798;-63
2021/01/02 07:00:48;;;;;;;7.60;5.60;;;0.80;99.90;;;;;;5073408;28;20410;-63
2021/01/02 07:03:35;;;;;;;7.83;6.03;;;0.80;99.90;;;;;;5073375;28;20234;-63
2021/01/02 07:06:19;;;;;;;7.00;4.83;;;0.80;99.90;;;;;;5071898;28;20563;-63
2021/01/02 07:08:45;;;;;;;8.97;6.20;;;0.80;99.90;;;;;;5072933;28;20455;-63
2021/01/02 07:11:26;;;;;;;5.87;4.53;;;0.80;99.90;;;;;;5073132;28;20438;-63
2021/01/02 07:14:10;;;;;;;7.10;5.47;;;0.90;99.90;;;;;;5073247;28;20898;-63
2021/01/02 07:16:43;;;;;;;6.20;5.10;;;0.80;99.90;;;;;;5072537;28;20436;-63
2021/01/02 07:19:49;;;;;;;9.30;5.23;;;0.80;99.90;;;;;;5073102;28;20401;-63
2021/01/02 07:22:16;;;;;;;5.53;4.37;;;0.70;99.90;;;;;;5072128;28;20445;-64
2021/01/02 07:24:57;;;;;;;7.10;4.57;;;0.80;99.90;;;;;;5072921;28;20422;-63
2021/01/02 07:27:29;;;;;;;6.57;4.90;;;0.80;99.90;;;;;;5072653;28;20426;-63
2021/01/02 07:30:07;;;;;;;7.50;4.80;;;0.80;99.90;;;;;;5072890;28;20394;-63
2021/01/02 07:32:35;;;;;;;7.10;6.40;;;0.90;99.90;;;;;;5072719;28;20398;-63
2021/01/02 07:35:04;;;;;;;5.23;4.47;;;0.90;99.90;;;;;;5071483;28;20839;-63
2021/01/02 07:37:34;;;;;;;8.50;5.47;;;0.80;99.90;;;;;;5072178;28;20406;-62
2021/01/02 07:40:17;;;;;;;5.90;5.03;;;0.90;99.90;;;;;;5072654;28;20398;-63
2021/01/02 07:42:53;;;;;;;7.80;4.90;;;0.90;99.90;;;;;;5072392;28;20486;-63
2021/01/02 07:45:26;;;;;;;6.60;5.23;;;0.90;99.90;;;;;;5072572;28;20423;-63
2021/01/02 07:47:59;;;;;;;6.20;4.17;;;0.90;99.90;;;;;;5072010;28;20423;-63
2021/01/02 07:50:27;;;;;;;6.87;4.93;;;0.90;99.90;;;;;;5072624;28;20459;-62
2021/01/02 07:52:55;;;;;;;7.37;3.40;;;0.90;99.90;;;;;;5072251;28;20489;-63
2021/01/02 07:55:26;;;;;;;5.90;4.70;;;0.90;99.90;;;;;;5072383;28;20429;-63
2021/01/02 07:57:52;;;;;;;5.60;4.10;;;0.90;99.90;;;;;;5070667;28;20469;-63
2021/01/02 08:00:19;;;;;;;6.50;4.30;;;0.90;99.90;;;;;;5072208;28;20924;-63
2021/01/02 08:02:44;;;;;;;6.20;5.33;;;0.80;99.90;;;;;;5072226;28;20446;-63
2021/01/02 08:05:11;;;;;;;6.23;5.63;;;0.90;99.90;;;;;;5072048;28;20426;-63
2021/01/02 08:07:38;;;;;;;4.87;4.20;;;0.90;99.90;;;;;;5071947;28;20246;-63
2021/01/02 08:10:09;;;;;;;4.70;4.20;;;0.90;99.90;;;;;;5072003;28;20420;-63
2021/01/02 08:12:35;;;;;;;5.70;5.20;;;1.00;99.90;;;;;;5072307;28;20802;-62
2021/01/02 08:15:01;;;;;;;7.07;4.80;;;1.00;99.90;;;;;;5071846;28;20449;-63
2021/01/02 08:17:38;;;;;;;5.10;4.10;;;1.00;99.90;;;;;;5071869;28;20437;-63
2021/01/02 08:20:04;;;;;;;5.17;4.00;;;1.00;99.90;;;;;;5071915;28;20580;-63
2021/01/02 08:22:35;;;;;;;6.07;4.80;;;1.00;99.90;;;;;;5070654;28;20495;-63
2021/01/02 08:25:14;;;;;;;4.30;3.90;;;1.00;99.90;;;;;;5071835;28;20429;-63
2021/01/02 08:27:40;;;;;;;5.07;4.67;;;1.10;99.90;;;;;;5071727;28;20916;-63
2021/01/02 08:30:09;;;;;;;8.83;4.47;;;1.10;99.90;;;;;;5071691;28;20906;-63
2021/01/02 08:32:38;;;;;;;5.40;3.93;;;1.10;99.90;;;;;;5071982;28;20442;-63
2021/01/02 08:35:18;;;;;;;5.90;4.00;;;1.10;99.90;;;;;;5071716;28;20507;-63
2021/01/02 08:37:45;;;;;;;3.90;3.53;;;1.20;99.90;;;;;;5071454;28;20408;-63
2021/01/02 08:40:13;;;;;;;3.83;3.30;;;1.20;99.90;;;;;;5071870;28;20547;-63
2021/01/02 08:42:40;;;;;;;4.70;4.30;;;1.30;99.90;;;;;;5071545;28;20453;-63
2021/01/02 08:45:08;;;;;;;5.80;4.73;;;1.30;99.90;;;;;;5071751;28;20426;-63
2021/01/02 08:47:36;;;;;;;5.20;4.70;;;1.30;99.90;;;;;;5071339;28;20448;-63
2021/01/02 08:50:12;;;;;;;6.00;4.50;;;1.30;99.90;;;;;;5071670;28;20397;-64
2021/01/02 08:52:38;;;;;;;6.50;4.03;;;1.30;99.90;;;;;;5071892;28;20479;-63
2021/01/02 08:55:11;;;;;;;4.67;4.00;;;1.40;99.90;;;;;;5075851;28;20979;-63
2021/01/02 08:57:48;;;;;;;8.50;5.30;;;1.40;99.90;;;;;;5075255;28;20429;-63
2021/01/02 09:00:19;;;;;;;4.70;4.23;;;1.50;99.90;;;;;;5075799;28;21075;-63
2021/01/02 09:02:51;;;;;;;6.07;5.47;;;1.40;99.90;;;;;;5075408;28;20479;-63
2021/01/02 09:05:26;;;;;;;6.90;3.77;;;1.40;99.90;;;;;;5075611;28;20428;-63
2021/01/02 09:08:16;;;;;;;4.33;3.83;;;1.40;99.90;;;;;;5075128;28;20401;-63
2021/01/02 09:10:43;;;;;;;8.37;4.77;;;1.40;99.90;;;;;;5075691;28;20390;-63
2021/01/02 09:13:27;;;;;;;10.63;5.73;;;1.50;99.90;;;;;;5075321;28;20402;-63
2021/01/02 09:16:14;;;;;;;8.80;6.23;;;1.50;99.90;;;;;;5075488;28;20464;-63
2021/01/02 09:18:41;;;;;;;11.00;7.10;;;1.50;99.90;;;;;;5074919;28;20460;-63
2021/01/02 09:21:10;;;;;;;6.90;5.60;;;1.60;99.90;;;;;;5075273;28;20397;-64
2021/01/02 09:23:40;;;;;;;6.03;4.80;;;1.60;99.90;;;;;;5075105;28;20882;-63
2021/01/02 09:26:25;;;;;;;5.63;5.13;;;1.70;99.90;;;;;;5075255;28;20421;-63
2021/01/02 09:28:52;;;;;;;5.63;4.80;;;1.70;99.90;;;;;;5074826;28;20440;-63
2021/01/02 09:31:18;;;;;;;6.87;5.17;;;1.80;99.90;;;;;;5075257;28;20496;-63
2021/01/02 09:33:45;;;;;;;5.63;4.20;;;1.80;99.90;;;;;;5074997;28;20405;-63
2021/01/02 09:36:15;;;;;;;9.13;5.30;;;1.80;99.90;;;;;;5074911;28;20988;-63
2021/01/02 09:38:42;;;;;;;5.00;4.50;;;1.80;99.90;;;;;;5074733;28;20418;-63
2021/01/02 09:41:08;;;;;;;5.10;4.60;;;1.90;99.90;;;;;;5074828;28;20437;-63
2021/01/02 09:43:34;;;;;;;3.80;3.50;;;1.90;99.90;;;;;;5074975;28;20805;-63
2021/01/02 09:46:00;;;;;;;3.77;3.47;;;1.90;99.90;;;;;;5074677;28;20432;-63
2021/01/02 09:48:25;;;;;;;5.47;3.50;;;2.00;99.90;;;;;;5074558;28;20588;-63
2021/01/02 09:50:52;;;;;;;4.03;3.50;;;1.90;99.90;;;;;;5074620;28;20178;-63
2021/01/02 09:53:18;;;;;;;5.00;3.47;;;2.00;99.90;;;;;;5074792;28;20647;-62
2021/01/02 09:55:43;;;;;;;3.50;3.10;;;2.00;99.90;;;;;;5074524;28;20433;-63
2021/01/02 09:58:11;;;;;;;3.40;3.10;;;2.00;99.90;;;;;;5074310;28;21094;-63
2021/01/02 10:00:36;;;;;;;4.03;3.60;;;2.00;99.90;;;;;;5074555;28;20632;-62
2021/01/02 10:03:03;;;;;;;4.13;3.70;;;2.10;99.90;;;;;;5074539;28;20441;-63
2021/01/02 10:05:29;;;;;;;5.20;3.97;;;2.10;99.90;;;;;;5073835;28;20828;-63
2021/01/02 10:07:55;;;;;;;3.50;3.20;;;2.10;99.90;;;;;;5074133;28;20402;-63
2021/01/02 10:10:21;;;;;;;4.97;3.43;;;2.10;99.90;;;;;;5074524;28;20155;-63
2021/01/02 10:12:48;;;;;;;6.27;4.60;;;2.20;99.90;;;;;;5074299;28;20764;-63
2021/01/02 10:15:15;;;;;;;4.40;3.40;;;2.20;99.90;;;;;;5074344;28;20432;-63
2021/01/02 10:17:41;;;;;;;5.73;3.50;;;2.20;99.90;;;;;;5073859;28;20406;-63
2021/01/02 10:20:09;;;;;;;5.00;3.43;;;2.30;99.90;;;;;;5074220;28;20408;-63
2021/01/02 10:22:34;;;;;;;5.00;3.50;;;2.30;99.90;;;;;;5074038;28;20456;-63
2021/01/02 10:25:00;;;;;;;3.63;3.30;;;2.30;99.90;;;;;;5073238;28;20430;-63
2021/01/02 10:27:27;;;;;;;4.07;3.67;;;2.30;99.90;;;;;;5073743;28;20167;-63
2021/01/02 10:29:54;;;;;;;5.90;4.00;;;2.30;99.90;;;;;;5074193;28;20167;-63
2021/01/02 10:32:22;;;;;;;4.03;3.63;;;2.40;99.90;;;;;;5073848;28;20397;-63
2021/01/02 10:34:51;;;;;;;5.47;3.33;;;2.40;99.90;;;;;;5073991;28;20551;-63
2021/01/02 10:37:21;;;;;;;4.40;3.97;;;2.40;99.90;;;;;;5073704;28;20413;-63
2021/01/02 10:39:47;;;;;;;3.47;3.17;;;2.50;99.90;;;;;;5072697;28;20632;-63
2021/01/02 10:42:14;;;;;;;5.50;4.33;;;2.40;99.90;;;;;;5073853;28;20536;-63
2021/01/02 10:44:44;;;;;;;6.80;4.00;;;2.50;99.90;;;;;;5073653;28;20170;-63
2021/01/02 10:47:11;;;;;;;7.90;5.60;;;2.50;99.90;;;;;;5073447;28;20777;-63
2021/01/02 10:49:37;;;;;;;9.03;6.50;;;2.50;99.90;;;;;;5073533;28;20906;-63
2021/01/02 10:52:03;;;;;;;7.93;5.73;;;2.50;99.90;;;;;;5073694;28;20492;-63
2021/01/02 10:54:29;;;;;;;7.57;4.90;;;2.50;99.90;;;;;;5073432;28;20405;-63
2021/01/02 10:56:54;;;;;;;8.20;6.63;;;2.40;99.90;;;;;;5073262;28;20175;-63
2021/01/02 10:59:22;;;;;;;8.33;5.80;;;2.40;99.90;;;;;;5073327;28;20258;-63
2021/01/02 11:01:54;;;;;;;7.20;6.20;;;2.40;99.90;;;;;;5073428;28;20874;-63
2021/01/02 11:04:21;;;;;;;8.03;5.80;;;2.30;99.90;;;;;;5073301;28;20411;-63
2021/01/02 11:06:50;;;;;;;7.00;5.10;;;2.40;99.90;;;;;;5073011;28;20934;-63
2021/01/02 11:09:17;;;;;;;7.00;4.70;;;2.40;99.90;;;;;;5073110;28;20418;-63
2021/01/02 11:11:43;;;;;;;6.17;5.10;;;2.40;99.90;;;;;;5073206;28;20413;-63
2021/01/02 11:14:10;;;;;;;7.40;5.10;;;2.50;99.90;;;;;;5073164;28;20416;-63
2021/01/02 11:16:38;;;;;;;6.40;5.20;;;2.50;99.90;;;;;;5072070;28;20195;-64
2021/01/02 11:19:09;;;;;;;5.70;5.03;;;2.50;99.90;;;;;;5073110;28;20455;-63
2021/01/02 11:21:35;;;;;;;6.77;5.23;;;2.40;99.90;;;;;;5072884;28;20453;-64
2021/01/02 11:24:01;;;;;;;5.53;4.13;;;2.50;99.90;;;;;;5073050;28;20409;-64
2021/01/02 11:26:26;;;;;;;8.00;4.57;;;2.50;99.90;;;;;;5072721;28;20274;-64
2021/01/02 11:28:52;;;;;;;7.20;4.73;;;2.50;99.90;;;;;;5072670;28;20168;-64
2021/01/02 11:31:26;;;;;;;6.30;3.83;;;2.60;99.90;;;;;;5072820;28;20846;-64
2021/01/02 11:33:52;;;;;;;6.40;4.47;;;2.60;99.90;;;;;;5072929;28;20758;-64
2021/01/02 11:36:17;;;;;;;7.70;5.23;;;2.50;99.90;;;;;;5072599;28;20500;-64
2021/01/02 11:38:43;;;;;;;7.80;5.57;;;2.60;99.90;;;;;;5072386;28;20248;-64
2021/01/02 11:41:08;;;;;;;6.20;5.03;;;2.60;99.90;;;;;;5072591;28;20176;-64
2021/01/02 11:43:34;;;;;;;8.63;5.50;;;2.70;99.90;;;;;;5072728;28;20174;-63
2021/01/02 11:46:00;;;;;;;7.00;5.33;;;2.70;99.90;;;;;;5072579;28;20198;-64
2021/01/02 11:48:25;;;;;;;10.23;7.00;;;2.70;99.90;;;;;;5072081;28;20817;-64
2021/01/02 11:50:51;;;;;;;10.90;8.97;;;2.70;99.90;;;;;;5072550;28;20171;-64
2021/01/02 11:53:16;;;;;;;10.50;8.30;;;2.70;99.90;;;;;;5072403;28;20654;-64
2021/01/02 11:55:42;;;;;;;7.97;6.37;;;2.70;99.90;;;;;;5072356;28;20300;-64
2021/01/02 11:58:08;;;;;;;9.27;6.90;;;2.70;99.90;;;;;;5071767;28;20187;-64
2021/01/02 12:00:33;;;;;;;7.00;5.20;;;2.60;99.90;;;;;;5072481;28;20171;-64
2021/01/02 12:02:59;;;;;;;10.40;6.90;;;2.60;99.90;;;;;;5071970;28;20707;-64
2021/01/02 12:05:25;;;;;;;8.17;6.13;;;2.60;99.90;;;;;;5072260;28;20465;-64
2021/01/02 12:07:51;;;;;;;10.87;6.10;;;2.60;99.90;;;;;;5071779;28;20164;-63
2021/01/02 12:10:17;;;;;;;10.43;6.77;;;2.50;99.90;;;;;;5072145;28;20674;-64
2021/01/02 12:12:43;;;;;;;9.30;6.47;;;2.60;99.90;;;;;;5072163;28;20171;-64
2021/01/02 12:15:09;;;;;;;8.80;6.23;;;2.50;99.90;;;;;;5072040;28;20433;-64
2021/01/02 12:17:35;;;;;;;10.93;6.23;;;2.50;99.90;;;;;;5071821;28;20413;-64
2021/01/02 12:20:02;;;;;;;12.57;7.30;;;2.50;99.90;;;;;;5071903;28;20414;-64
2021/01/02 12:22:29;;;;;;;13.33;7.03;;;2.60;99.90;;;;;;5072011;28;20445;-64
2021/01/02 12:24:55;;;;;;;15.53;8.97;;;2.50;99.90;;;;;;5071789;28;20460;-64
2021/01/02 12:27:20;;;;;;;14.10;8.20;;;2.50;99.90;;;;;;5071585;28;20437;-64
2021/01/02 12:29:46;;;;;;;11.70;9.03;;;2.60;99.90;;;;;;5071872;28;20203;-64
2021/01/02 12:32:12;;;;;;;10.17;7.23;;;2.60;99.90;;;;;;5072036;28;20178;-64
2021/01/02 12:34:40;;;;;;;16.00;9.37;;;2.40;99.90;;;;;;5071723;28;20213;-64
2021/01/02 12:37:10;;;;;;;10.90;8.03;;;2.50;99.90;;;;;;5072176;28;20215;-64
2021/01/02 12:39:37;;;;;;;12.67;8.17;;;2.50;99.90;;;;;;5071552;28;20413;-64
2021/01/02 12:42:03;;;;;;;17.07;8.40;;;2.60;99.90;;;;;;5071813;28;20452;-64
2021/01/02 12:44:29;;;;;;;15.30;7.67;;;2.50;99.90;;;;;;5071604;28;20398;-64
2021/01/02 12:46:58;;;;;;;13.63;8.53;;;2.60;99.90;;;;;;5071425;28;20182;-64
2021/01/02 12:49:27;;;;;;;12.50;7.03;;;2.60;99.90;;;;;;5071740;28;20412;-64
2021/01/02 12:51:57;;;;;;;10.70;7.50;;;2.60;99.90;;;;;;5071488;28;20429;-64
2021/01/02 12:54:23;;;;;;;11.30;7.50;;;2.70;99.90;;;;;;5071686;28;20420;-64
2021/01/02 12:56:50;;;;;;;18.53;8.53;;;2.70;99.90;;;;;;5071113;28;20406;-64
2021/01/02 12:59:21;;;;;;;11.50;6.53;;;2.80;99.90;;;;;;5071673;28;20766;-64
2021/01/02 13:01:47;;;;;;;12.03;6.67;;;2.90;99.90;;;;;;5071405;28;20464;-64
2021/01/02 13:04:13;;;;;;;11.53;7.33;;;2.90;99.90;;;;;;5071674;28;20448;-64